createdAt,value
2022-11-10T00:00:55.933Z,11.20
2022-11-10T00:05:57.433Z,11.18
2022-11-10T00:10:58.871Z,11.16
2022-11-10T00:16:24.470Z,11.12
2022-11-10T00:21:25.729Z,11.10
2022-11-10T00:26:27.046Z,11.07
2022-11-10T00:31:28.397Z,11.06
2022-11-10T00:36:30.301Z,11.06
2022-11-10T00:41:32.098Z,11.07
2022-11-10T00:46:33.428Z,11.04
2022-11-10T00:51:34.765Z,11.00
2022-11-10T00:56:36.063Z,10.93
2022-11-10T01:01:37.406Z,10.89
2022-11-10T01:06:39.075Z,10.86
2022-11-10T01:11:40.426Z,10.86
2022-11-10T01:16:41.734Z,10.87
2022-11-10T01:21:43.253Z,10.86
2022-11-10T01:26:44.557Z,10.83
2022-11-10T01:31:45.888Z,10.83
2022-11-10T01:36:47.216Z,10.81
2022-11-10T01:41:48.602Z,10.71
2022-11-10T01:46:49.872Z,10.65
2022-11-10T01:52:00.534Z,10.66
2022-11-10T01:57:07.716Z,10.68
2022-11-10T02:02:28.369Z,10.64
2022-11-10T02:07:31.732Z,10.56
2022-11-10T02:12:39.172Z,10.47
2022-11-10T02:17:41.784Z,10.45
2022-11-10T02:22:43.061Z,10.39
2022-11-10T02:27:44.444Z,10.37
2022-11-10T02:32:46.036Z,10.38
2022-11-10T02:37:47.352Z,10.29
2022-11-10T02:42:48.788Z,10.29
2022-11-10T02:47:50.283Z,10.25
2022-11-10T02:52:51.665Z,10.24
2022-11-10T02:57:53.097Z,10.32
2022-11-10T03:02:58.290Z,10.26
2022-11-10T03:08:02.276Z,10.20
2022-11-10T03:13:03.722Z,10.19
2022-11-10T03:18:05.244Z,10.20
2022-11-10T03:23:07.141Z,10.21
2022-11-10T03:28:08.920Z,10.17
2022-11-10T03:33:10.161Z,10.23
2022-11-10T03:38:11.471Z,10.27
2022-11-10T03:43:12.711Z,10.31
2022-11-10T03:48:13.975Z,10.29
2022-11-10T03:53:15.215Z,10.27
2022-11-10T03:58:16.497Z,10.25
2022-11-10T04:03:17.767Z,10.25
2022-11-10T04:08:37.735Z,10.28
2022-11-10T04:13:57.513Z,10.32
2022-11-10T04:18:58.761Z,10.26
2022-11-10T04:24:00.048Z,10.17
2022-11-10T04:29:03.576Z,10.12
2022-11-10T04:34:10.678Z,9.99
2022-11-10T04:39:12.129Z,9.90
2022-11-10T04:44:13.453Z,9.84
2022-11-10T04:49:14.811Z,9.79
2022-11-10T04:54:16.191Z,9.75
2022-11-10T04:59:17.442Z,9.77
2022-11-10T05:04:18.747Z,9.72
2022-11-10T05:09:20.123Z,9.69
2022-11-10T05:14:21.428Z,9.68
2022-11-10T05:19:22.728Z,9.62
2022-11-10T05:24:23.975Z,9.62
2022-11-10T05:29:25.245Z,9.48
2022-11-10T05:34:26.616Z,9.45
2022-11-10T05:39:27.987Z,9.53
2022-11-10T05:44:29.255Z,9.47
2022-11-10T05:49:30.603Z,9.47
2022-11-10T05:54:31.983Z,9.44
2022-11-10T05:59:33.326Z,9.49
2022-11-10T06:04:34.620Z,9.41
2022-11-10T06:09:36.456Z,9.32
2022-11-10T06:14:37.791Z,9.32
2022-11-10T06:19:39.086Z,9.35
2022-11-10T06:24:40.389Z,9.38
2022-11-10T06:29:41.849Z,9.29
2022-11-10T06:34:43.783Z,9.25
2022-11-10T06:39:46.388Z,9.29
2022-11-10T06:44:47.689Z,9.32
2022-11-10T06:49:48.959Z,9.26
2022-11-10T06:54:50.325Z,9.31
2022-11-10T06:59:51.657Z,9.16
2022-11-10T07:04:52.948Z,9.17
2022-11-10T07:09:55.309Z,9.10
2022-11-10T07:14:56.603Z,9.29
2022-11-10T07:19:57.940Z,9.47
2022-11-10T07:24:59.248Z,9.77
2022-11-10T07:30:00.536Z,9.78
2022-11-10T07:35:01.792Z,9.97
2022-11-10T07:40:03.850Z,9.93
2022-11-10T07:45:05.726Z,9.97
2022-11-10T07:50:07.690Z,10.06
2022-11-10T07:55:09.308Z,10.22
2022-11-10T08:00:12.588Z,10.27
2022-11-10T08:05:13.978Z,10.30
2022-11-10T08:10:15.499Z,10.18
2022-11-10T08:15:16.915Z,10.32
2022-11-10T08:20:18.664Z,10.43
2022-11-10T08:25:20.003Z,10.30
2022-11-10T08:30:21.370Z,10.28
2022-11-10T08:35:24.864Z,10.35
2022-11-10T08:40:27.659Z,10.49
2022-11-10T08:45:29.335Z,10.66
2022-11-10T08:50:31.305Z,10.88
2022-11-10T08:55:32.737Z,11.02
2022-11-10T09:00:34.752Z,11.27
2022-11-10T09:05:37.279Z,11.56
2022-11-10T09:10:41.502Z,11.85
2022-11-10T09:15:43.563Z,12.14
2022-11-10T09:20:44.897Z,12.53
2022-11-10T09:25:52.142Z,13.16
2022-11-10T09:30:53.696Z,14.04
2022-11-10T09:35:59.550Z,15.90
2022-11-10T09:41:04.316Z,17.13
2022-11-10T09:46:16.032Z,18.24
2022-11-10T09:51:30.791Z,18.54
2022-11-10T09:56:34.882Z,18.15
2022-11-10T10:01:50.162Z,16.93
2022-11-10T10:07:11.960Z,16.52
2022-11-10T10:12:45.885Z,16.15
2022-11-10T10:17:59.089Z,17.20
2022-11-10T10:23:17.738Z,15.53
2022-11-10T10:28:19.207Z,17.25
2022-11-10T10:33:22.157Z,19.61
2022-11-10T10:38:32.526Z,19.12
2022-11-10T10:43:33.927Z,20.36
2022-11-10T10:48:36.322Z,18.70
2022-11-10T10:53:48.025Z,19.46
2022-11-10T10:58:55.472Z,17.73
2022-11-10T11:03:57.705Z,19.46
2022-11-10T11:09:23.220Z,18.53
2022-11-10T11:14:27.499Z,18.00
2022-11-10T11:19:35.092Z,20.29
2022-11-10T11:24:53.239Z,21.73
2022-11-10T11:30:09.415Z,24.47
2022-11-10T11:35:26.660Z,27.61
2022-11-10T11:40:41.881Z,30.47
2022-11-10T11:45:59.259Z,31.23
2022-11-10T11:51:12.187Z,30.76
2022-11-10T11:56:40.975Z,23.64
2022-11-10T12:02:04.087Z,25.70
2022-11-10T12:07:36.258Z,26.05
2022-11-10T12:13:07.131Z,26.36
2022-11-10T12:18:17.541Z,28.87
2022-11-10T12:23:41.005Z,28.73
2022-11-10T12:28:55.036Z,24.45
2022-11-10T12:34:05.979Z,22.02
2022-11-10T12:39:46.562Z,20.44
2022-11-10T12:45:17.241Z,22.03
2022-11-10T12:50:44.562Z,28.87
2022-11-10T12:56:00.395Z,28.67
2022-11-10T13:01:05.155Z,29.62
2022-11-10T13:06:24.382Z,30.48
2022-11-10T13:11:34.125Z,31.08
2022-11-10T13:16:41.757Z,31.61
2022-11-10T13:21:52.275Z,31.85
2022-11-10T13:26:55.215Z,32.20
2022-11-10T13:32:17.881Z,32.60
2022-11-10T13:37:34.632Z,31.47
2022-11-10T13:42:36.239Z,30.35
2022-11-10T13:47:41.680Z,29.54
2022-11-10T13:53:01.579Z,28.40
2022-11-10T13:58:06.021Z,26.71
2022-11-10T14:03:07.990Z,23.39
2022-11-10T14:08:09.255Z,23.77
2022-11-10T14:13:41.648Z,21.93
2022-11-10T14:18:49.042Z,20.58
2022-11-10T14:24:05.062Z,19.55
2022-11-10T14:29:38.185Z,18.36
2022-11-10T14:34:49.397Z,20.52
2022-11-10T14:39:54.524Z,21.37
2022-11-10T14:45:07.664Z,22.17
2022-11-10T14:50:14.862Z,23.07
2022-11-10T14:55:20.703Z,20.58
2022-11-10T15:00:26.152Z,18.42
2022-11-10T15:05:29.928Z,17.15
2022-11-10T15:10:40.441Z,16.60
2022-11-10T15:15:42.004Z,16.19
2022-11-10T15:20:45.051Z,15.76
2022-11-10T15:25:52.835Z,15.60
2022-11-10T15:30:58.310Z,15.31
2022-11-10T15:36:27.886Z,14.94
2022-11-10T15:41:32.628Z,14.64
2022-11-10T15:46:33.943Z,14.57
2022-11-10T15:51:35.273Z,14.60
2022-11-10T15:56:36.654Z,14.47
2022-11-10T16:01:38.401Z,14.36
2022-11-10T16:06:40.150Z,14.25
2022-11-10T16:11:44.561Z,14.22
2022-11-10T16:16:45.901Z,14.10
2022-11-10T16:21:47.181Z,14.06
2022-11-10T16:26:48.585Z,13.90
2022-11-10T16:31:50.583Z,13.86
2022-11-10T16:36:51.949Z,13.71
2022-11-10T16:41:53.477Z,13.71
2022-11-10T16:46:58.714Z,13.58
2022-11-10T16:52:08.064Z,13.52
2022-11-10T16:57:14.141Z,13.51
2022-11-10T17:02:30.761Z,13.36
2022-11-10T17:07:33.588Z,13.32
2022-11-10T17:12:34.992Z,13.30
2022-11-10T17:17:36.715Z,13.31
2022-11-10T17:22:38.231Z,13.18
2022-11-10T17:27:39.585Z,13.13
2022-11-10T17:33:03.733Z,13.01
2022-11-10T17:38:02.182Z,12.91
2022-11-10T17:43:03.724Z,12.93
2022-11-10T17:48:05.528Z,12.78
2022-11-10T17:53:22.218Z,12.76
2022-11-10T17:58:23.799Z,12.64
2022-11-10T18:03:25.293Z,12.54
2022-11-10T18:08:26.793Z,12.35
2022-11-10T18:13:28.063Z,12.38
2022-11-10T18:18:29.386Z,12.37
2022-11-10T18:23:30.922Z,12.40
2022-11-10T18:28:33.383Z,12.42
2022-11-10T18:33:35.023Z,12.32
2022-11-10T18:38:36.418Z,12.18
2022-11-10T18:43:37.764Z,12.17
2022-11-10T18:48:39.180Z,12.17
2022-11-10T18:53:40.626Z,12.23
2022-11-10T18:58:42.657Z,12.18
2022-11-10T19:03:44.988Z,12.05
2022-11-10T19:08:46.487Z,11.96
2022-11-10T19:13:48.241Z,11.99
2022-11-10T19:18:49.689Z,12.03
2022-11-10T19:23:54.947Z,11.82
2022-11-10T19:28:56.717Z,11.81
2022-11-10T19:33:58.283Z,11.68
2022-11-10T19:38:59.637Z,11.59
2022-11-10T19:44:00.974Z,11.50
2022-11-10T19:49:04.229Z,11.31
2022-11-10T19:54:05.856Z,11.24
2022-11-10T19:59:08.049Z,11.25
2022-11-10T20:04:09.870Z,11.26
2022-11-10T20:09:11.182Z,11.23
2022-11-10T20:14:12.457Z,11.09
2022-11-10T20:19:13.860Z,11.02
2022-11-10T20:24:15.176Z,10.89
2022-11-10T20:29:16.448Z,10.75
2022-11-10T20:34:17.740Z,10.58
2022-11-10T20:39:19.017Z,10.60
2022-11-10T20:44:20.307Z,10.56
2022-11-10T20:49:21.637Z,10.42
2022-11-10T20:54:22.892Z,10.39
2022-11-10T20:59:24.180Z,10.28
2022-11-10T21:04:25.498Z,10.31
2022-11-10T21:09:27.644Z,10.36
2022-11-10T21:14:28.954Z,10.34
2022-11-10T21:19:34.420Z,10.36
2022-11-10T21:24:35.708Z,10.25
2022-11-10T21:29:37.050Z,10.13
2022-11-10T21:34:38.638Z,10.12
2022-11-10T21:39:40.660Z,10.06
2022-11-10T21:44:41.899Z,10.07
2022-11-10T21:49:43.199Z,10.00
2022-11-10T21:54:44.457Z,9.82
2022-11-10T21:59:45.722Z,9.80
2022-11-10T22:04:46.986Z,9.82
2022-11-10T22:10:06.956Z,9.81
2022-11-10T22:15:32.468Z,9.85
2022-11-10T22:20:33.827Z,9.76
2022-11-10T22:25:35.661Z,9.70
2022-11-10T22:30:37.670Z,9.72
2022-11-10T22:35:45.028Z,9.83
2022-11-10T22:41:05.131Z,9.79
2022-11-10T22:46:06.383Z,9.77
2022-11-10T22:51:07.627Z,9.72
2022-11-10T22:56:09.134Z,9.71
2022-11-10T23:01:11.416Z,9.83
2022-11-10T23:06:12.901Z,9.89
2022-11-10T23:11:20.310Z,9.88
2022-11-10T23:16:27.153Z,9.71
2022-11-10T23:21:30.342Z,9.81
2022-11-10T23:26:33.773Z,9.69
2022-11-10T23:31:35.155Z,9.74
2022-11-10T23:36:36.415Z,9.73
2022-11-10T23:41:37.682Z,9.73
2022-11-10T23:46:38.943Z,9.71
2022-11-10T23:51:40.215Z,9.75
2022-11-10T23:56:41.618Z,9.66
